Time;durP1;ratioP1;P1;durP2;ratioP2;P2;SDS_P1;SDS_P2;PMS_P1;PMS_P2;Temp;Humidity;BMP_temperature;BMP_pressure;BME280_temperature;BME280_humidity;BME280_pressure;Samples;Min_cycle;Max_cycle;Signal;HPM_P1;HPM_P2
2023/03/16 00:00:50;;;;;;;13.82;8.05;;;;;;;;;;4882353;29;20044;-91
2023/03/16 00:03:18;;;;;;;13.60;8.18;;;;;;;;;;4881684;29;20030;-91
2023/03/16 00:05:53;;;;;;;14.98;8.43;;;;;;;;;;4885938;29;20040;-91
2023/03/16 00:08:19;;;;;;;14.15;8.10;;;;;;;;;;4881634;29;20028;-90
2023/03/16 00:10:46;;;;;;;13.02;7.20;;;;;;;;;;4881522;29;20138;-91
2023/03/16 00:13:17;;;;;;;12.15;7.18;;;;;;;;;;4881724;29;20041;-90
2023/03/16 00:15:53;;;;;;;9.75;7.10;;;;;;;;;;4882261;29;20036;-91
2023/03/16 00:18:20;;;;;;;13.38;7.13;;;;;;;;;;4881569;29;20032;-90
2023/03/16 00:20:50;;;;;;;12.18;7.53;;;;;;;;;;4881570;29;20056;-91
2023/03/16 00:23:16;;;;;;;10.40;6.85;;;;;;;;;;4881577;29;20029;-91
2023/03/16 00:25:42;;;;;;;11.52;7.25;;;;;;;;;;4881381;29;20028;-90
2023/03/16 00:28:08;;;;;;;12.70;7.85;;;;;;;;;;4880926;29;20041;-90
2023/03/16 00:30:35;;;;;;;13.18;7.78;;;;;;;;;;4881076;29;20024;-91
2023/03/16 00:33:03;;;;;;;10.25;7.38;;;;;;;;;;4881043;29;20040;-91
2023/03/16 00:35:33;;;;;;;14.23;8.32;;;;;;;;;;4881292;29;20205;-91
2023/03/16 00:37:59;;;;;;;15.70;8.77;;;;;;;;;;4880878;29;20044;-91
2023/03/16 00:40:25;;;;;;;14.18;9.20;;;;;;;;;;4881897;29;20036;-91
2023/03/16 00:42:53;;;;;;;13.20;9.00;;;;;;;;;;4883266;29;20156;-91
2023/03/16 00:45:20;;;;;;;14.20;9.63;;;;;;;;;;4882661;29;20512;-92
2023/03/16 00:47:46;;;;;;;14.38;9.63;;;;;;;;;;4883116;29;20043;-91
2023/03/16 00:50:21;;;;;;;13.98;9.75;;;;;;;;;;4881962;29;20035;-90
2023/03/16 00:52:47;;;;;;;15.93;9.98;;;;;;;;;;4881340;29;20115;-91
2023/03/16 00:55:13;;;;;;;18.00;9.90;;;;;;;;;;4881120;29;20032;-91
2023/03/16 00:57:40;;;;;;;14.88;9.52;;;;;;;;;;4880943;29;20389;-90
2023/03/16 01:00:12;;;;;;;14.65;9.77;;;;;;;;;;4880764;29;20024;-91
2023/03/16 01:02:38;;;;;;;15.50;10.23;;;;;;;;;;4881731;29;20474;-93
2023/03/16 01:05:05;;;;;;;16.75;10.65;;;;;;;;;;4880814;29;20064;-91
2023/03/16 01:07:31;;;;;;;17.77;9.70;;;;;;;;;;4886244;29;20048;-91
2023/03/16 01:09:57;;;;;;;17.02;10.68;;;;;;;;;;4880809;29;20031;-92
2023/03/16 01:12:23;;;;;;;17.80;10.30;;;;;;;;;;4880733;29;20035;-91
2023/03/16 01:14:49;;;;;;;17.73;10.20;;;;;;;;;;4880777;29;20123;-91
2023/03/16 01:17:17;;;;;;;19.70;10.50;;;;;;;;;;4880981;29;20040;-91
2023/03/16 01:19:43;;;;;;;15.48;9.68;;;;;;;;;;4880804;29;20029;-90
2023/03/16 01:22:10;;;;;;;16.25;9.68;;;;;;;;;;4880618;29;20132;-90
2023/03/16 01:24:37;;;;;;;17.92;10.27;;;;;;;;;;4882320;29;20165;-91
2023/03/16 01:27:03;;;;;;;18.55;11.20;;;;;;;;;;4882387;29;20040;-91
2023/03/16 01:29:30;;;;;;;16.60;11.23;;;;;;;;;;4881034;29;20067;-91
2023/03/16 01:31:56;;;;;;;15.65;10.63;;;;;;;;;;4880544;29;20048;-91
2023/03/16 01:34:22;;;;;;;18.13;10.45;;;;;;;;;;4880741;29;20029;-91
2023/03/16 01:36:49;;;;;;;19.05;11.00;;;;;;;;;;4880757;29;20068;-91
2023/03/16 01:39:16;;;;;;;16.38;10.18;;;;;;;;;;4881368;29;20061;-90
2023/03/16 01:41:43;;;;;;;15.05;10.27;;;;;;;;;;4884675;29;20032;-92
2023/03/16 01:44:13;;;;;;;16.25;10.35;;;;;;;;;;4884216;29;20095;-91
2023/03/16 01:46:40;;;;;;;19.45;11.00;;;;;;;;;;4884053;29;20561;-91
2023/03/16 01:49:22;;;;;;;17.17;10.50;;;;;;;;;;4884208;29;20039;-89
2023/03/16 01:52:01;;;;;;;14.80;9.90;;;;;;;;;;4883911;29;20085;-91
2023/03/16 01:54:35;;;;;;;15.52;10.10;;;;;;;;;;4884252;29;20029;-90
2023/03/16 01:57:05;;;;;;;16.65;10.30;;;;;;;;;;4884163;29;20029;-91
2023/03/16 01:59:33;;;;;;;16.88;11.30;;;;;;;;;;4883938;29;20035;-91
2023/03/16 02:02:01;;;;;;;17.90;11.38;;;;;;;;;;4884135;29;20071;-91
2023/03/16 02:04:36;;;;;;;16.55;10.48;;;;;;;;;;4893588;29;20043;-91
2023/03/16 02:07:03;;;;;;;19.95;11.32;;;;;;;;;;4889842;29;20040;-92
2023/03/16 02:09:29;;;;;;;20.55;11.75;;;;;;;;;;4883929;29;20117;-90
2023/03/16 02:11:56;;;;;;;18.40;11.25;;;;;;;;;;4883982;29;20040;-92
2023/03/16 02:14:23;;;;;;;18.80;11.48;;;;;;;;;;4883780;29;20028;-91
2023/03/16 02:16:57;;;;;;;16.67;11.15;;;;;;;;;;4894243;29;20029;-90
2023/03/16 02:19:23;;;;;;;;;;;;;;;;;;4885240;29;20116;-91
2023/03/16 02:22:01;;;;;;;19.20;11.32;;;;;;;;;;4900507;29;19908;-91
2023/03/16 02:27:39;;;;;;;17.98;10.57;;;;;;;;;;5196141;23;20169;-92
2023/03/16 02:30:11;;;;;;;18.77;11.52;;;;;;;;;;4864906;29;20033;-91
2023/03/16 02:32:39;;;;;;;18.98;11.45;;;;;;;;;;4868589;29;20124;-90
2023/03/16 02:35:06;;;;;;;16.67;11.63;;;;;;;;;;4871629;29;20054;-90
2023/03/16 02:37:33;;;;;;;18.73;11.80;;;;;;;;;;4865779;29;20120;-91
2023/03/16 02:39:59;;;;;;;19.33;12.00;;;;;;;;;;4864681;29;20029;-91
2023/03/16 02:42:26;;;;;;;17.58;11.15;;;;;;;;;;4864606;29;20036;-92
2023/03/16 02:44:57;;;;;;;21.02;12.13;;;;;;;;;;4864921;29;20033;-91
2023/03/16 02:47:38;;;;;;;22.27;13.07;;;;;;;;;;4864975;29;20142;-92
2023/03/16 02:50:05;;;;;;;22.38;13.25;;;;;;;;;;4864222;29;20029;-90
2023/03/16 02:52:35;;;;;;;19.98;12.52;;;;;;;;;;4864095;29;20033;-91
2023/03/16 02:55:02;;;;;;;21.38;12.90;;;;;;;;;;4864793;29;20135;-91
2023/03/16 02:57:29;;;;;;;20.67;12.85;;;;;;;;;;4864576;29;20037;-92
2023/03/16 02:59:55;;;;;;;22.58;13.02;;;;;;;;;;4864523;29;20033;-92
2023/03/16 03:02:21;;;;;;;18.33;11.77;;;;;;;;;;4864055;29;20483;-92
2023/03/16 03:04:47;;;;;;;22.75;13.00;;;;;;;;;;4864324;29;20029;-91
2023/03/16 03:07:13;;;;;;;19.88;11.98;;;;;;;;;;4871069;29;20041;-91
2023/03/16 03:09:42;;;;;;;22.15;12.05;;;;;;;;;;4864361;29;20482;-90
2023/03/16 03:12:09;;;;;;;19.70;11.70;;;;;;;;;;4863985;29;20041;-91
2023/03/16 03:14:39;;;;;;;20.38;12.45;;;;;;;;;;4864402;29;20033;-92
2023/03/16 03:17:09;;;;;;;21.30;11.93;;;;;;;;;;4864748;29;20033;-92
2023/03/16 03:19:35;;;;;;;19.90;11.20;;;;;;;;;;4863783;29;20371;-90
2023/03/16 03:22:05;;;;;;;18.50;11.52;;;;;;;;;;4863688;29;20049;-92
2023/03/16 03:24:31;;;;;;;23.17;13.23;;;;;;;;;;4863694;29;20040;-91
2023/03/16 03:27:04;;;;;;;20.58;11.70;;;;;;;;;;4863581;29;20668;-92
2023/03/16 03:29:33;;;;;;;24.45;12.70;;;;;;;;;;4863919;29;20464;-90
2023/03/16 03:32:05;;;;;;;23.45;12.32;;;;;;;;;;4863934;29;20259;-90
2023/03/16 03:34:31;;;;;;;21.40;11.98;;;;;;;;;;4863984;29;20036;-91
2023/03/16 03:36:58;;;;;;;21.83;12.73;;;;;;;;;;4863714;29;20045;-91
2023/03/16 03:39:24;;;;;;;21.38;11.75;;;;;;;;;;4863298;29;20051;-92
2023/03/16 03:41:53;;;;;;;21.45;13.50;;;;;;;;;;4863562;29;20035;-91
2023/03/16 03:44:23;;;;;;;24.33;13.45;;;;;;;;;;4863683;29;20090;-90
2023/03/16 03:46:50;;;;;;;24.67;14.40;;;;;;;;;;4863088;29;20093;-91
2023/03/16 03:49:16;;;;;;;21.77;13.30;;;;;;;;;;4863520;29;20448;-91
2023/03/16 03:51:43;;;;;;;25.52;14.43;;;;;;;;;;4863494;29;20036;-92
2023/03/16 03:54:09;;;;;;;23.20;13.48;;;;;;;;;;4863403;29;20064;-91
2023/03/16 03:56:35;;;;;;;25.95;13.65;;;;;;;;;;4879995;29;20032;-92
2023/03/16 03:59:02;;;;;;;25.88;13.73;;;;;;;;;;4863072;29;20474;-91
2023/03/16 04:01:28;;;;;;;28.17;15.32;;;;;;;;;;4863031;29;20132;-91
2023/03/16 04:03:54;;;;;;;23.02;13.77;;;;;;;;;;4862214;29;20029;-92
2023/03/16 04:06:20;;;;;;;29.27;14.45;;;;;;;;;;4863058;29;20398;-91
2023/03/16 04:08:46;;;;;;;26.92;14.85;;;;;;;;;;4871484;29;20037;-91
2023/03/16 04:11:12;;;;;;;22.92;13.90;;;;;;;;;;4865064;29;20152;-91
2023/03/16 04:13:39;;;;;;;24.20;13.73;;;;;;;;;;4862977;29;20068;-90
2023/03/16 04:16:05;;;;;;;24.67;13.15;;;;;;;;;;4862976;29;20066;-91
2023/03/16 04:18:37;;;;;;;28.27;14.60;;;;;;;;;;4862731;29;20562;-90
2023/03/16 04:21:05;;;;;;;27.13;15.18;;;;;;;;;;4863045;29;20033;-91
2023/03/16 04:23:32;;;;;;;27.63;15.70;;;;;;;;;;4862739;29;20029;-91
2023/03/16 04:25:58;;;;;;;26.70;14.93;;;;;;;;;;4862603;29;20040;-91
2023/03/16 04:28:25;;;;;;;23.67;14.32;;;;;;;;;;4877583;29;20058;-90
2023/03/16 04:30:53;;;;;;;24.52;13.00;;;;;;;;;;4881103;29;20039;-91
2023/03/16 04:33:20;;;;;;;23.70;14.27;;;;;;;;;;4881637;29;20263;-91
2023/03/16 04:35:46;;;;;;;27.45;14.25;;;;;;;;;;4880933;29;20029;-91
2023/03/16 04:38:13;;;;;;;25.83;14.18;;;;;;;;;;4881186;29;20031;-91
2023/03/16 04:40:39;;;;;;;26.55;14.77;;;;;;;;;;4880589;29;20032;-91
2023/03/16 04:43:06;;;;;;;26.95;14.48;;;;;;;;;;4880874;29;20032;-90
2023/03/16 04:45:32;;;;;;;24.02;13.43;;;;;;;;;;4881168;29;20028;-91
2023/03/16 04:47:58;;;;;;;26.35;14.65;;;;;;;;;;4885657;29;20064;-90
2023/03/16 04:50:24;;;;;;;24.48;14.88;;;;;;;;;;4884726;29;20032;-90
2023/03/16 04:52:50;;;;;;;25.13;13.98;;;;;;;;;;4881209;29;20122;-89
2023/03/16 04:55:16;;;;;;;23.35;13.77;;;;;;;;;;4880794;29;20111;-90
2023/03/16 04:57:42;;;;;;;21.85;13.07;;;;;;;;;;4880756;29;20167;-90
2023/03/16 05:00:12;;;;;;;25.35;14.38;;;;;;;;;;4880816;29;20036;-90
2023/03/16 05:02:38;;;;;;;23.52;13.88;;;;;;;;;;4880152;29;20088;-90
2023/03/16 05:05:05;;;;;;;22.60;12.98;;;;;;;;;;4881043;29;20037;-90
2023/03/16 05:07:31;;;;;;;23.25;13.68;;;;;;;;;;4880873;29;20044;-90
2023/03/16 05:09:58;;;;;;;25.65;14.27;;;;;;;;;;4881123;29;20036;-90
2023/03/16 05:15:27;;;;;;;25.23;12.90;;;;;;;;;;4898607;29;20039;-91
2023/03/16 05:17:57;;;;;;;22.70;12.93;;;;;;;;;;4890553;29;20473;-91
2023/03/16 05:20:23;;;;;;;21.33;12.55;;;;;;;;;;4883361;29;20032;-91
2023/03/16 05:22:50;;;;;;;25.70;13.32;;;;;;;;;;4882604;29;20160;-92
2023/03/16 05:25:16;;;;;;;23.55;12.93;;;;;;;;;;4882372;29;20048;-90
2023/03/16 05:27:46;;;;;;;23.38;13.15;;;;;;;;;;4881913;29;20060;-90
2023/03/16 05:30:15;;;;;;;23.83;12.57;;;;;;;;;;4882520;29;20052;-91
2023/03/16 05:32:41;;;;;;;22.45;12.85;;;;;;;;;;4882723;29;20060;-90
2023/03/16 05:35:09;;;;;;;22.30;12.68;;;;;;;;;;4882838;29;20025;-93
2023/03/16 05:37:36;;;;;;;22.30;13.48;;;;;;;;;;4882853;29;20084;-92
2023/03/16 05:40:11;;;;;;;23.48;11.95;;;;;;;;;;4882825;29;20069;-90
2023/03/16 05:42:37;;;;;;;24.30;12.70;;;;;;;;;;4882039;29;20032;-92
2023/03/16 05:45:03;;;;;;;21.38;13.27;;;;;;;;;;4882070;29;20038;-91
2023/03/16 05:47:30;;;;;;;21.65;11.88;;;;;;;;;;4882085;29;20100;-90
2023/03/16 05:49:56;;;;;;;16.70;10.57;;;;;;;;;;4882418;29;20119;-91
2023/03/16 05:52:24;;;;;;;17.98;10.35;;;;;;;;;;4882441;29;20036;-92
2023/03/16 05:54:50;;;;;;;13.93;9.20;;;;;;;;;;4881989;29;20033;-92
2023/03/16 05:57:16;;;;;;;15.02;9.15;;;;;;;;;;4881844;29;20137;-91
2023/03/16 05:59:43;;;;;;;15.00;9.25;;;;;;;;;;4881938;29;20027;-92
2023/03/16 06:02:09;;;;;;;13.35;8.38;;;;;;;;;;4881722;29;20844;-92
2023/03/16 06:04:36;;;;;;;13.70;9.10;;;;;;;;;;4882401;29;20059;-93
2023/03/16 06:07:02;;;;;;;14.30;8.70;;;;;;;;;;4888928;29;20032;-91
2023/03/16 06:09:28;;;;;;;12.93;9.07;;;;;;;;;;4899961;29;20079;-92
2023/03/16 06:11:54;;;;;;;10.57;9.15;;;;;;;;;;4900208;29;20075;-91
2023/03/16 06:14:22;;;;;;;10.30;8.35;;;;;;;;;;4900319;29;20119;-89
2023/03/16 06:16:48;;;;;;;11.18;8.80;;;;;;;;;;4900356;29;20188;-90
2023/03/16 06:19:14;;;;;;;9.25;7.10;;;;;;;;;;4900168;29;20032;-91
2023/03/16 06:21:40;;;;;;;12.20;8.63;;;;;;;;;;4899098;29;20544;-91
2023/03/16 06:24:08;;;;;;;9.95;8.43;;;;;;;;;;4898433;29;20251;-90
2023/03/16 06:26:34;;;;;;;11.45;8.80;;;;;;;;;;4900469;29;20039;-89
2023/03/16 06:29:00;;;;;;;10.32;7.68;;;;;;;;;;4906262;29;20028;-91
2023/03/16 06:31:29;;;;;;;9.48;7.95;;;;;;;;;;4906258;29;20034;-92
2023/03/16 06:33:55;;;;;;;10.70;7.97;;;;;;;;;;4903199;29;20462;-89
2023/03/16 06:36:22;;;;;;;9.90;8.30;;;;;;;;;;4903841;29;20507;-90
2023/03/16 06:38:48;;;;;;;9.82;7.63;;;;;;;;;;4903022;29;20024;-89
2023/03/16 06:41:14;;;;;;;8.55;6.38;;;;;;;;;;4903308;29;20086;-90
2023/03/16 06:43:41;;;;;;;11.05;6.90;;;;;;;;;;4903569;29;20029;-90
2023/03/16 06:46:07;;;;;;;9.40;6.38;;;;;;;;;;4903131;29;20040;-90
2023/03/16 06:48:33;;;;;;;8.68;6.63;;;;;;;;;;4902901;29;20035;-89
2023/03/16 06:51:00;;;;;;;9.65;6.32;;;;;;;;;;4903231;29;20028;-92
2023/03/16 06:53:26;;;;;;;9.32;6.68;;;;;;;;;;4903266;29;20115;-94
2023/03/16 06:55:52;;;;;;;8.45;6.18;;;;;;;;;;4903132;29;20031;-92
2023/03/16 06:58:18;;;;;;;9.40;5.80;;;;;;;;;;4903132;29;20373;-92
2023/03/16 07:00:44;;;;;;;8.68;5.55;;;;;;;;;;4903490;29;20028;-94
2023/03/16 07:03:11;;;;;;;10.18;5.57;;;;;;;;;;4904025;29;20036;-91
2023/03/16 07:05:38;;;;;;;7.22;4.78;;;;;;;;;;4910121;29;20032;-92
2023/03/16 07:08:04;;;;;;;6.93;4.95;;;;;;;;;;4903185;29;20043;-93
2023/03/16 07:10:30;;;;;;;9.30;5.85;;;;;;;;;;4902699;29;20048;-91
2023/03/16 07:12:56;;;;;;;9.88;6.13;;;;;;;;;;4899350;29;20055;-90
2023/03/16 07:15:25;;;;;;;7.97;5.78;;;;;;;;;;4895900;29;20030;-90
2023/03/16 07:17:51;;;;;;;6.97;5.50;;;;;;;;;;4902897;29;20667;-90
2023/03/16 07:20:18;;;;;;;6.40;5.15;;;;;;;;;;4901006;29;20027;-90
2023/03/16 07:22:44;;;;;;;7.82;4.85;;;;;;;;;;4907101;29;20025;-90
2023/03/16 07:25:10;;;;;;;11.57;6.03;;;;;;;;;;4902454;29;20044;-90
2023/03/16 07:27:37;;;;;;;7.63;4.50;;;;;;;;;;4916143;29;20051;-88
2023/03/16 16:17:03;;;;;;;9.20;3.03;;;;;;;;;;5158156;23;20052;-93
2023/03/16 16:19:32;;;;;;;4.97;2.45;;;;;;;;;;4879842;29;20104;-91
2023/03/16 16:21:58;;;;;;;7.07;3.22;;;;;;;;;;4869315;29;20041;-92
2023/03/16 16:24:24;;;;;;;8.68;3.72;;;;;;;;;;4863742;29;20033;-92
2023/03/16 16:26:51;;;;;;;9.98;4.78;;;;;;;;;;4865644;29;20047;-92
2023/03/16 16:29:21;;;;;;;8.82;4.40;;;;;;;;;;4863672;29;20063;-96
2023/03/16 16:31:50;;;;;;;10.93;4.65;;;;;;;;;;4883218;29;20120;-91
2023/03/16 16:34:19;;;;;;;8.40;4.30;;;;;;;;;;4863652;29;20385;-93
2023/03/16 16:36:46;;;;;;;8.70;4.38;;;;;;;;;;4880742;29;20477;-94
2023/03/16 16:39:13;;;;;;;9.82;4.78;;;;;;;;;;4881403;29;20033;-93
2023/03/16 16:41:40;;;;;;;8.77;4.20;;;;;;;;;;4865095;29;20558;-94
2023/03/16 16:44:13;;;;;;;10.02;5.10;;;;;;;;;;4865244;29;20430;-94
2023/03/16 16:46:40;;;;;;;14.90;5.70;;;;;;;;;;4865477;29;20041;-94
2023/03/16 16:49:12;;;;;;;11.32;5.68;;;;;;;;;;4865805;29;20047;-94
2023/03/16 16:51:38;;;;;;;10.30;4.70;;;;;;;;;;4864767;29;20093;-93
2023/03/16 16:54:13;;;;;;;9.23;5.50;;;;;;;;;;4865097;29;20037;-95
2023/03/16 16:56:39;;;;;;;7.97;3.85;;;;;;;;;;4865211;29;20041;-94
2023/03/16 16:59:19;;;;;;;10.05;4.25;;;;;;;;;;4869197;29;20025;-95
2023/03/16 17:01:46;;;;;;;7.97;3.80;;;;;;;;;;4858999;29;20049;-94
2023/03/16 17:04:14;;;;;;;7.25;2.90;;;;;;;;;;4864935;29;20123;-95
2023/03/16 17:06:41;;;;;;;4.43;2.85;;;;;;;;;;4865943;29;20048;-92
2023/03/16 17:09:07;;;;;;;7.07;3.42;;;;;;;;;;4865053;29;20089;-94
2023/03/16 17:11:34;;;;;;;10.05;4.45;;;;;;;;;;4867673;29;20025;-96
2023/03/16 17:14:03;;;;;;;9.15;5.05;;;;;;;;;;4883355;29;20390;-96
2023/03/16 17:16:31;;;;;;;18.42;8.07;;;;;;;;;;4859279;29;20064;-96
2023/03/16 17:19:00;;;;;;;13.07;7.05;;;;;;;;;;4846711;29;20514;-93
2023/03/16 17:21:33;;;;;;;10.05;5.38;;;;;;;;;;4836674;29;20384;-95
2023/03/16 17:24:02;;;;;;;10.50;4.35;;;;;;;;;;4858028;29;20063;-94
2023/03/16 17:26:49;;;;;;;8.40;3.85;;;;;;;;;;4841778;29;20509;-96
2023/03/16 17:29:16;;;;;;;10.35;4.40;;;;;;;;;;4849515;29;20029;-94
2023/03/16 17:31:42;;;;;;;8.88;3.58;;;;;;;;;;4846043;29;20025;-95
2023/03/16 17:34:14;;;;;;;8.48;3.60;;;;;;;;;;4846547;29;20030;-90
2023/03/16 17:36:41;;;;;;;14.27;4.22;;;;;;;;;;4845622;29;20059;-96
2023/03/16 17:39:26;;;;;;;7.18;4.10;;;;;;;;;;4845979;29;20086;-95
2023/03/16 17:41:56;;;;;;;12.43;4.63;;;;;;;;;;4845836;29;20026;-96
2023/03/16 17:44:25;;;;;;;10.73;5.10;;;;;;;;;;4846204;29;20066;-94
2023/03/16 17:46:53;;;;;;;12.38;6.15;;;;;;;;;;4845460;29;20475;-91
2023/03/16 17:49:21;;;;;;;13.93;5.95;;;;;;;;;;4844981;29;20061;-89
2023/03/16 17:51:47;;;;;;;11.60;5.90;;;;;;;;;;4844623;29;20120;-91
2023/03/16 17:54:13;;;;;;;11.75;4.97;;;;;;;;;;4845307;29;20025;-92
2023/03/16 17:56:40;;;;;;;9.13;4.30;;;;;;;;;;4848156;29;20056;-91
2023/03/16 17:59:11;;;;;;;15.30;3.88;;;;;;;;;;4846895;29;20029;-92
2023/03/16 18:01:42;;;;;;;10.90;4.00;;;;;;;;;;4845414;29;20025;-94
2023/03/16 18:04:23;;;;;;;10.90;4.45;;;;;;;;;;4846846;29;20029;-96
2023/03/16 18:06:53;;;;;;;9.57;4.55;;;;;;;;;;4850105;29;20037;-96
2023/03/16 18:09:27;;;;;;;13.38;5.78;;;;;;;;;;4850187;29;20033;-95
2023/03/16 18:12:10;;;;;;;10.63;5.07;;;;;;;;;;4864887;29;20045;-95
2023/03/16 18:14:57;;;;;;;9.80;4.53;;;;;;;;;;4862368;29;20033;-95
2023/03/16 18:17:25;;;;;;;10.43;4.50;;;;;;;;;;4848609;29;20049;-96
2023/03/16 18:19:52;;;;;;;8.05;4.22;;;;;;;;;;4866759;29;20048;-96
2023/03/16 18:22:23;;;;;;;8.68;4.40;;;;;;;;;;4858036;29;20033;-92
2023/03/16 18:27:46;;;;;;;12.77;5.18;;;;;;;;;;4877604;29;20065;-96
2023/03/16 18:33:44;;;;;;;;;;;;;;;;;;;;;
2023/03/16 18:44:48;;;;;;;28.10;11.50;;;;;;;;;;4974218;23;20084;-96
2023/03/16 18:47:17;;;;;;;24.00;7.78;;;;;;;;;;4893102;29;20048;-95
2023/03/16 18:56:11;;;;;;;16.33;6.10;;;;;;;;;;5017809;23;20173;-96
2023/03/16 18:58:44;;;;;;;23.77;9.90;;;;;;;;;;4887088;29;20048;-96
2023/03/16 19:01:42;;;;;;;22.95;9.18;;;;;;;;;;4901200;29;20041;-96
2023/03/16 19:13:06;;;;;;;23.10;10.35;;;;;;;;;;4854730;29;20030;-96
2023/03/16 19:15:34;;;;;;;24.60;10.32;;;;;;;;;;4899818;29;20040;-94
2023/03/16 19:18:00;;;;;;;23.25;8.98;;;;;;;;;;4900414;29;20031;-93
2023/03/16 19:20:33;;;;;;;21.05;9.85;;;;;;;;;;4894228;29;20078;-96
2023/03/16 19:23:22;;;;;;;26.40;9.70;;;;;;;;;;4885461;29;20036;-96
2023/03/16 19:25:56;;;;;;;17.13;8.85;;;;;;;;;;4889144;29;20116;-96
2023/03/16 19:28:32;;;;;;;17.98;7.93;;;;;;;;;;4870703;29;20055;-93
2023/03/16 19:30:59;;;;;;;18.90;8.85;;;;;;;;;;4901450;29;20040;-92
2023/03/16 19:33:30;;;;;;;16.27;8.10;;;;;;;;;;4885509;29;20060;-93
2023/03/16 19:35:57;;;;;;;15.07;7.88;;;;;;;;;;4887740;29;20036;-92
2023/03/16 19:47:37;;;;;;;17.45;8.40;;;;;;;;;;4908870;23;20143;-95
2023/03/16 19:50:08;;;;;;;18.08;9.35;;;;;;;;;;4889621;29;20482;-93
2023/03/16 19:52:43;;;;;;;17.80;9.70;;;;;;;;;;4882737;29;20059;-94
2023/03/16 19:55:21;;;;;;;28.92;11.73;;;;;;;;;;4883088;29;20029;-95
2023/03/16 19:57:49;;;;;;;22.13;10.23;;;;;;;;;;4894051;29;20127;-93
2023/03/16 20:00:24;;;;;;;23.83;10.00;;;;;;;;;;4885234;29;20367;-93
2023/03/16 20:02:50;;;;;;;20.35;10.45;;;;;;;;;;4894112;29;20029;-93
2023/03/16 20:05:26;;;;;;;20.63;9.68;;;;;;;;;;4890343;29;20113;-94
2023/03/16 20:07:53;;;;;;;22.77;10.75;;;;;;;;;;4889299;29;20040;-92
2023/03/16 20:10:23;;;;;;;22.85;11.07;;;;;;;;;;4888698;29;20024;-94
2023/03/16 20:13:04;;;;;;;;;;;;;;;;;;;;;
2023/03/16 20:15:47;;;;;;;22.55;10.57;;;;;;;;;;4909692;29;20085;-96
2023/03/16 20:18:17;;;;;;;21.42;10.43;;;;;;;;;;4893177;29;20058;-94
2023/03/16 20:20:56;;;;;;;28.83;12.52;;;;;;;;;;4891503;29;20069;-94
2023/03/16 20:23:26;;;;;;;47.45;21.55;;;;;;;;;;4891633;29;20025;-95
2023/03/16 20:26:06;;;;;;;34.70;15.23;;;;;;;;;;4890450;29;20040;-94
2023/03/16 20:28:51;;;;;;;45.70;20.05;;;;;;;;;;4890128;29;20041;-95
2023/03/16 20:31:33;;;;;;;45.92;18.70;;;;;;;;;;4890922;29;20091;-96
2023/03/16 20:34:25;;;;;;;36.33;16.42;;;;;;;;;;4890990;29;20072;-93
2023/03/16 20:36:52;;;;;;;27.85;13.48;;;;;;;;;;4885313;29;20033;-96
2023/03/16 20:39:18;;;;;;;25.17;11.77;;;;;;;;;;4890066;29;20076;-94
2023/03/16 20:41:44;;;;;;;38.95;11.52;;;;;;;;;;4889570;29;20036;-95
2023/03/16 20:44:15;;;;;;;34.13;14.90;;;;;;;;;;4889040;29;20036;-95
2023/03/16 20:46:47;;;;;;;29.30;13.10;;;;;;;;;;4891046;29;20036;-96
2023/03/16 20:49:24;;;;;;;29.65;13.05;;;;;;;;;;4890346;29;20051;-96
2023/03/16 20:52:10;;;;;;;24.60;11.52;;;;;;;;;;4898866;29;20031;-96
2023/03/16 20:54:43;;;;;;;23.15;11.02;;;;;;;;;;4891936;29;20108;-95
2023/03/16 20:57:42;;;;;;;32.13;12.32;;;;;;;;;;4892302;29;20025;-95
2023/03/16 21:00:27;;;;;;;27.02;12.18;;;;;;;;;;4892972;29;20047;-94
2023/03/16 21:02:56;;;;;;;36.90;14.52;;;;;;;;;;4891873;29;20029;-96
2023/03/16 21:05:23;;;;;;;35.17;15.15;;;;;;;;;;4909606;29;20029;-96
2023/03/16 21:07:50;;;;;;;33.25;15.68;;;;;;;;;;4891263;29;20044;-96
2023/03/16 21:10:28;;;;;;;34.92;15.32;;;;;;;;;;4891452;29;20025;-94
2023/03/16 21:12:57;;;;;;;30.83;14.20;;;;;;;;;;4892577;29;20035;-96
2023/03/16 21:15:30;;;;;;;28.83;14.40;;;;;;;;;;4891144;29;20048;-94
2023/03/16 21:18:09;;;;;;;25.45;11.90;;;;;;;;;;4889644;29;20035;-95
2023/03/16 21:20:36;;;;;;;33.53;14.85;;;;;;;;;;4890207;29;20167;-95
2023/03/16 21:23:02;;;;;;;35.08;13.35;;;;;;;;;;4874813;29;20064;-96
2023/03/16 21:25:30;;;;;;;27.20;12.43;;;;;;;;;;4892336;29;20028;-95
2023/03/16 21:28:04;;;;;;;27.23;12.07;;;;;;;;;;4892634;29;20445;-93
2023/03/16 21:30:54;;;;;;;28.02;12.30;;;;;;;;;;4906972;29;20032;-95
2023/03/16 21:33:35;;;;;;;29.23;12.85;;;;;;;;;;4909164;29;20041;-95
2023/03/16 21:36:01;;;;;;;28.55;13.13;;;;;;;;;;4890278;29;20024;-95
2023/03/16 21:38:30;;;;;;;25.67;11.63;;;;;;;;;;4909328;29;20032;-95
2023/03/16 21:41:04;;;;;;;24.08;10.80;;;;;;;;;;4892903;29;20024;-94
2023/03/16 21:43:30;;;;;;;;;;;;;;;;;;4894850;29;20065;-95
2023/03/16 21:45:58;;;;;;;21.60;9.43;;;;;;;;;;4890474;29;19907;-96
2023/03/16 21:54:07;;;;;;;22.08;10.57;;;;;;;;;;5070008;23;20061;-91
2023/03/16 21:56:34;;;;;;;23.20;9.95;;;;;;;;;;4892217;29;20105;-94
2023/03/16 21:59:01;;;;;;;23.05;9.75;;;;;;;;;;4896830;29;20028;-94
2023/03/16 22:01:32;;;;;;;28.58;13.15;;;;;;;;;;4881035;29;20048;-96
2023/03/16 22:04:02;;;;;;;28.95;12.27;;;;;;;;;;4896580;29;20057;-94
2023/03/16 22:06:29;;;;;;;31.92;13.90;;;;;;;;;;4894923;29;20048;-93
2023/03/16 22:09:06;;;;;;;32.53;14.98;;;;;;;;;;4893059;29;20104;-94
2023/03/16 22:11:36;;;;;;;35.78;15.93;;;;;;;;;;4918963;29;20101;-94
2023/03/16 22:14:03;;;;;;;37.53;15.88;;;;;;;;;;4898148;29;20131;-93
2023/03/16 22:16:32;;;;;;;35.90;13.90;;;;;;;;;;4895501;29;20040;-92
2023/03/16 22:18:58;;;;;;;32.28;14.15;;;;;;;;;;4893973;29;20051;-96
2023/03/16 22:21:35;;;;;;;32.45;14.48;;;;;;;;;;4890846;29;20048;-96
2023/03/16 22:24:05;;;;;;;48.45;19.73;;;;;;;;;;4892175;29;20210;-94
2023/03/16 22:26:32;;;;;;;48.00;20.70;;;;;;;;;;4877814;29;20040;-96
2023/03/16 22:29:02;;;;;;;43.72;19.50;;;;;;;;;;4890510;29;20036;-94
2023/03/16 22:31:42;;;;;;;50.33;22.05;;;;;;;;;;4887962;29;20101;-94
2023/03/16 22:34:15;;;;;;;40.90;17.73;;;;;;;;;;4907080;29;20041;-95
2023/03/16 22:36:41;;;;;;;42.60;18.95;;;;;;;;;;4894633;29;20055;-93
2023/03/16 22:39:11;;;;;;;35.65;16.38;;;;;;;;;;4910449;29;20037;-92
2023/03/16 22:41:37;;;;;;;34.25;15.30;;;;;;;;;;4897977;29;20087;-95
2023/03/16 22:44:04;;;;;;;33.45;15.07;;;;;;;;;;4898859;29;20024;-92
2023/03/16 22:46:30;;;;;;;29.55;13.55;;;;;;;;;;4893792;29;20032;-95
2023/03/16 22:49:00;;;;;;;26.05;13.15;;;;;;;;;;4912294;29;20067;-96
2023/03/16 22:51:42;;;;;;;23.30;9.50;;;;;;;;;;4906492;29;20029;-96
2023/03/16 22:54:15;;;;;;;18.90;7.60;;;;;;;;;;4872796;29;20085;-92
2023/03/16 22:56:42;;;;;;;13.45;6.32;;;;;;;;;;4874358;29;20040;-93
2023/03/16 22:59:10;;;;;;;15.57;7.30;;;;;;;;;;4874068;29;20056;-96
2023/03/16 23:01:41;;;;;;;15.30;7.18;;;;;;;;;;4873302;29;20025;-96
2023/03/16 23:04:28;;;;;;;13.57;6.30;;;;;;;;;;4891100;29;20096;-95
2023/03/16 23:06:56;;;;;;;13.77;6.50;;;;;;;;;;4869326;29;20049;-96
2023/03/16 23:09:49;;;;;;;13.15;6.05;;;;;;;;;;4876154;29;20025;-96
2023/03/16 23:12:26;;;;;;;13.50;7.20;;;;;;;;;;4890533;29;20053;-92
2023/03/16 23:14:52;;;;;;;17.73;7.00;;;;;;;;;;4878472;29;20033;-96
2023/03/16 23:17:22;;;;;;;13.23;6.70;;;;;;;;;;4889217;29;20044;-95
2023/03/16 23:19:51;;;;;;;14.80;6.70;;;;;;;;;;4871958;29;20037;-96
2023/03/16 23:22:20;;;;;;;16.90;8.90;;;;;;;;;;4874636;29;20041;-96
2023/03/16 23:25:15;;;;;;;20.10;10.02;;;;;;;;;;4890551;29;20065;-93
2023/03/16 23:27:42;;;;;;;16.98;9.23;;;;;;;;;;4876952;29;20088;-95
2023/03/16 23:30:25;;;;;;;19.98;10.68;;;;;;;;;;4896858;29;20036;-94
2023/03/16 23:32:58;;;;;;;25.00;11.20;;;;;;;;;;4883828;29;20036;-92
2023/03/16 23:35:27;;;;;;;33.35;16.65;;;;;;;;;;4859050;29;20037;-96
2023/03/16 23:38:00;;;;;;;32.45;15.10;;;;;;;;;;4882903;29;20040;-93
2023/03/16 23:40:27;;;;;;;;;;;;;;;;;;4883935;29;20096;-95
2023/03/16 23:43:00;;;;;;;94.72;36.70;;;;;;;;;;4866213;29;19915;-96
2023/03/16 23:45:32;;;;;;;;;;;;;;;;;;4851298;29;20510;-92
2023/03/16 23:48:00;;;;;;;79.55;27.48;;;;;;;;;;4865926;29;19919;-93
2023/03/16 23:50:30;;;;;;;66.93;27.95;;;;;;;;;;4865412;29;20085;-92
2023/03/16 23:56:06;;;;;;;69.32;30.48;;;;;;;;;;4825120;29;20111;-96
2023/03/16 23:58:33;;;;;;;95.63;37.38;;;;;;;;;;4810964;29;20129;-96
